createdAt,value
2019-05-21T00:00:52.676Z,12.40
2019-05-21T00:03:21.604Z,12.40
2019-05-21T00:05:50.469Z,12.30
2019-05-21T00:08:20.037Z,12.30
2019-05-21T00:10:48.898Z,12.30
2019-05-21T00:13:17.749Z,12.30
2019-05-21T00:15:46.668Z,12.20
2019-05-21T00:18:15.529Z,12.30
2019-05-21T00:20:44.380Z,12.30
2019-05-21T00:23:13.221Z,12.30
2019-05-21T00:25:42.617Z,12.30
2019-05-21T00:28:38.884Z,12.20
2019-05-21T00:31:44.617Z,12.20
2019-05-21T00:34:50.884Z,12.30
2019-05-21T00:37:55.938Z,12.20
2019-05-21T00:41:00.662Z,12.20
2019-05-21T00:43:46.241Z,12.20
2019-05-21T00:46:15.256Z,12.10
2019-05-21T00:48:44.169Z,12.20
2019-05-21T00:51:13.205Z,12.10
2019-05-21T00:53:42.129Z,12.10
2019-05-21T00:56:11.081Z,12.10
2019-05-21T00:58:40.313Z,12.10
2019-05-21T01:01:09.329Z,12.20
2019-05-21T01:03:38.178Z,12.10
2019-05-21T01:06:07.188Z,12.10
2019-05-21T01:08:36.475Z,12.00
2019-05-21T01:11:05.779Z,12.00
2019-05-21T01:13:34.997Z,12.00
2019-05-21T01:16:04.052Z,12.10
2019-05-21T01:18:32.894Z,12.00
2019-05-21T01:21:01.817Z,12.00
2019-05-21T01:23:30.964Z,12.00
2019-05-21T01:25:59.818Z,12.10
2019-05-21T01:28:28.669Z,12.10
2019-05-21T01:30:57.831Z,12.10
2019-05-21T01:33:26.680Z,12.00
2019-05-21T01:35:56.228Z,12.10
2019-05-21T01:38:25.136Z,12.10
2019-05-21T01:40:54.069Z,12.00
2019-05-21T01:43:23.002Z,12.00
2019-05-21T01:45:51.945Z,12.10
2019-05-21T01:48:21.214Z,12.00
2019-05-21T01:50:50.139Z,12.00
2019-05-21T01:53:18.976Z,12.00
2019-05-21T01:55:48.140Z,11.90
2019-05-21T01:58:17.469Z,12.00
2019-05-21T02:00:46.468Z,12.00
2019-05-21T02:03:15.319Z,12.10
2019-05-21T02:05:44.191Z,12.10
2019-05-21T02:08:13.166Z,12.00
2019-05-21T02:10:42.177Z,12.00
2019-05-21T02:13:11.513Z,11.90
2019-05-21T02:15:40.524Z,11.90
2019-05-21T02:18:09.729Z,12.00
2019-05-21T02:20:38.666Z,12.00
2019-05-21T02:23:07.927Z,12.00
2019-05-21T02:25:36.909Z,11.80
2019-05-21T02:28:05.841Z,11.90
2019-05-21T02:30:34.837Z,11.90
2019-05-21T02:33:03.785Z,11.90
2019-05-21T02:35:32.630Z,11.90
2019-05-21T02:38:01.495Z,11.90
2019-05-21T02:40:30.404Z,11.90
2019-05-21T02:42:59.525Z,11.90
2019-05-21T02:45:28.464Z,11.80
2019-05-21T02:47:57.397Z,11.90
2019-05-21T02:50:26.314Z,11.90
2019-05-21T02:52:55.539Z,12.00
2019-05-21T02:55:24.457Z,11.90
2019-05-21T02:57:53.394Z,11.80
2019-05-21T03:00:47.821Z,11.90
2019-05-21T03:03:18.850Z,11.90
2019-05-21T03:05:47.773Z,11.90
2019-05-21T03:08:16.693Z,11.90
2019-05-21T03:10:46.133Z,11.90
2019-05-21T03:13:15.137Z,11.90
2019-05-21T03:15:44.064Z,12.00
2019-05-21T03:18:13.090Z,12.00
2019-05-21T03:20:42.317Z,12.00
2019-05-21T03:23:11.519Z,11.90
2019-05-21T03:25:40.577Z,12.00
2019-05-21T03:28:09.585Z,12.00
2019-05-21T03:30:38.516Z,11.90
2019-05-21T03:33:07.602Z,11.90
2019-05-21T03:35:36.994Z,11.90
2019-05-21T03:38:06.194Z,11.90
2019-05-21T03:40:35.036Z,11.90
2019-05-21T03:43:03.972Z,11.90
2019-05-21T03:45:32.884Z,11.80
2019-05-21T03:48:01.816Z,11.90
2019-05-21T03:50:31.079Z,12.00
2019-05-21T03:52:59.926Z,12.00
2019-05-21T03:55:28.941Z,11.90
2019-05-21T03:57:57.821Z,11.90
2019-05-21T04:00:26.729Z,11.80
2019-05-21T04:02:55.594Z,11.80
2019-05-21T04:05:25.498Z,11.90
2019-05-21T04:07:54.601Z,11.80
2019-05-21T04:10:24.260Z,11.80
2019-05-21T04:13:09.458Z,11.90
2019-05-21T04:15:52.150Z,11.90
2019-05-21T04:18:25.284Z,11.90
2019-05-21T04:20:54.267Z,11.90
2019-05-21T04:23:23.201Z,11.90
2019-05-21T04:25:52.039Z,11.90
2019-05-21T04:28:21.234Z,11.90
2019-05-21T04:30:50.232Z,11.90
2019-05-21T04:33:19.486Z,11.90
2019-05-21T04:35:48.689Z,11.90
2019-05-21T04:38:18.182Z,12.00
2019-05-21T04:40:47.101Z,12.00
2019-05-21T04:43:18.833Z,12.00
2019-05-21T04:45:47.669Z,11.90
2019-05-21T04:48:18.825Z,12.00
2019-05-21T04:50:47.829Z,11.90
2019-05-21T04:53:16.825Z,11.90
2019-05-21T04:55:45.682Z,11.90
2019-05-21T04:58:14.877Z,11.90
2019-05-21T05:00:44.205Z,11.90
2019-05-21T05:03:13.445Z,11.90
2019-05-21T05:05:42.386Z,11.90
2019-05-21T05:08:11.362Z,11.90
2019-05-21T05:10:40.244Z,11.90
2019-05-21T05:13:09.233Z,11.90
2019-05-21T05:15:38.199Z,11.90
2019-05-21T05:18:07.501Z,11.90
2019-05-21T05:20:36.435Z,11.90
2019-05-21T05:23:05.440Z,11.90
2019-05-21T05:25:34.381Z,11.90
2019-05-21T05:28:03.313Z,11.90
2019-05-21T05:30:32.727Z,11.90
2019-05-21T05:33:01.582Z,11.90
2019-05-21T05:35:30.459Z,11.90
2019-05-21T05:37:59.390Z,11.80
2019-05-21T05:40:28.607Z,11.80
2019-05-21T05:42:58.049Z,11.80
2019-05-21T05:45:27.065Z,11.80
2019-05-21T05:47:55.913Z,11.90
2019-05-21T05:50:27.454Z,11.80
2019-05-21T05:52:56.416Z,11.80
2019-05-21T05:55:25.386Z,11.80
2019-05-21T05:57:54.735Z,11.90
2019-05-21T06:00:24.088Z,11.90
2019-05-21T06:02:52.968Z,11.90
2019-05-21T06:05:21.981Z,11.90
2019-05-21T06:07:59.866Z,11.90
2019-05-21T06:10:22.551Z,11.90
2019-05-21T06:12:51.478Z,11.90
2019-05-21T06:15:22.013Z,11.90
2019-05-21T06:17:51.319Z,11.90
2019-05-21T06:20:21.826Z,11.90
2019-05-21T06:22:51.162Z,12.00
2019-05-21T06:25:20.575Z,11.90
2019-05-21T06:27:49.527Z,11.90
2019-05-21T06:30:18.038Z,11.90
2019-05-21T06:32:46.919Z,12.00
2019-05-21T06:35:16.183Z,11.90
2019-05-21T06:37:45.109Z,11.90
2019-05-21T06:40:14.941Z,11.80
2019-05-21T06:42:43.791Z,11.90
2019-05-21T06:45:13.296Z,11.90
2019-05-21T06:47:42.294Z,11.90
2019-05-21T06:50:11.729Z,12.00
2019-05-21T06:52:40.605Z,12.00
2019-05-21T06:55:09.657Z,12.00
2019-05-21T06:57:38.820Z,12.00
2019-05-21T07:00:08.729Z,12.00
2019-05-21T07:02:37.656Z,12.10
2019-05-21T07:05:06.868Z,12.10
2019-05-21T07:07:36.019Z,12.00
2019-05-21T07:10:06.120Z,12.10
2019-05-21T07:12:35.059Z,12.20
2019-05-21T07:15:04.761Z,12.20
2019-05-21T07:17:33.685Z,12.20
2019-05-21T07:20:02.640Z,12.10
2019-05-21T07:22:31.583Z,12.20
2019-05-21T07:25:00.771Z,12.20
2019-05-21T07:27:30.020Z,12.20
2019-05-21T07:29:58.894Z,12.20
2019-05-21T07:32:28.296Z,12.20
2019-05-21T07:34:57.369Z,12.20
2019-05-21T07:37:26.238Z,12.20
2019-05-21T07:39:55.086Z,12.20
2019-05-21T07:42:24.399Z,12.20
2019-05-21T07:44:53.250Z,12.10
2019-05-21T07:47:22.283Z,12.10
2019-05-21T07:49:51.217Z,12.10
2019-05-21T07:52:20.237Z,12.10
2019-05-21T07:54:49.083Z,12.10
2019-05-21T07:57:18.106Z,12.10
2019-05-21T07:59:47.035Z,12.00
2019-05-21T08:02:15.990Z,12.00
2019-05-21T08:04:44.830Z,12.10
2019-05-21T08:07:13.832Z,12.10
2019-05-21T08:09:42.723Z,12.10
2019-05-21T08:12:35.348Z,12.10
2019-05-21T08:14:42.322Z,12.10
2019-05-21T08:17:11.211Z,12.10
2019-05-21T08:19:40.218Z,12.10
2019-05-21T08:22:09.188Z,12.10
2019-05-21T08:24:38.529Z,12.10
2019-05-21T08:27:07.491Z,12.10
2019-05-21T08:29:36.705Z,12.00
2019-05-21T08:32:06.206Z,12.00
2019-05-21T08:34:35.144Z,12.00
2019-05-21T08:37:04.155Z,12.10
2019-05-21T08:39:33.409Z,12.00
2019-05-21T08:42:02.413Z,12.00
2019-05-21T08:44:31.334Z,12.00
2019-05-21T08:47:00.205Z,12.10
2019-05-21T08:49:29.565Z,12.10
2019-05-21T08:51:59.067Z,12.10
2019-05-21T08:54:45.801Z,12.10
2019-05-21T08:57:14.669Z,12.10
2019-05-21T08:59:43.688Z,12.10
2019-05-21T09:02:12.686Z,12.10
2019-05-21T09:04:46.293Z,12.10
2019-05-21T09:07:12.350Z,12.10
2019-05-21T09:09:49.972Z,12.10
2019-05-21T09:12:12.315Z,12.10
2019-05-21T09:14:41.412Z,12.10
2019-05-21T09:17:10.711Z,12.20
2019-05-21T09:19:39.641Z,12.20
2019-05-21T09:22:08.649Z,12.00
2019-05-21T09:24:37.568Z,12.10
2019-05-21T09:27:06.577Z,12.10
2019-05-21T09:29:35.637Z,12.20
2019-05-21T09:32:04.660Z,12.20
2019-05-21T09:34:47.545Z,12.20
2019-05-21T09:37:18.638Z,12.20
2019-05-21T09:39:35.257Z,12.30
2019-05-21T09:42:04.249Z,12.30
2019-05-21T09:44:33.203Z,12.30
2019-05-21T09:47:02.125Z,12.30
2019-05-21T09:49:31.053Z,12.30
2019-05-21T09:51:59.970Z,12.40
2019-05-21T09:54:28.843Z,12.40
2019-05-21T09:56:57.765Z,12.40
2019-05-21T09:59:44.381Z,12.60
2019-05-21T10:02:16.737Z,12.60
2019-05-21T10:04:45.597Z,12.60
2019-05-21T10:07:14.690Z,12.60
2019-05-21T10:09:43.973Z,12.60
2019-05-21T10:12:12.964Z,12.60
2019-05-21T10:14:41.981Z,12.60
2019-05-21T10:17:11.169Z,12.60
2019-05-21T10:19:40.206Z,12.60
2019-05-21T10:22:09.621Z,12.60
2019-05-21T10:24:39.045Z,12.70
2019-05-21T10:27:08.049Z,12.70
2019-05-21T10:29:36.978Z,12.70
2019-05-21T10:32:05.915Z,12.70
2019-05-21T10:34:34.861Z,12.70
2019-05-21T10:37:04.393Z,12.70
2019-05-21T10:39:33.406Z,12.80
2019-05-21T10:42:02.325Z,12.90
2019-05-21T10:44:31.340Z,13.00
2019-05-21T10:47:00.354Z,13.00
2019-05-21T10:49:29.224Z,13.10
2019-05-21T10:51:58.221Z,13.20
2019-05-21T10:54:27.575Z,13.30
2019-05-21T10:56:56.514Z,13.30
2019-05-21T10:59:25.861Z,13.20
2019-05-21T11:02:05.117Z,13.30
2019-05-21T11:04:47.207Z,13.30
2019-05-21T11:07:18.062Z,13.30
2019-05-21T11:09:47.076Z,13.30
2019-05-21T11:12:16.441Z,13.30
2019-05-21T11:14:45.305Z,13.30
2019-05-21T11:17:14.373Z,13.30
2019-05-21T11:19:43.250Z,13.20
2019-05-21T11:22:12.616Z,13.30
2019-05-21T11:24:41.480Z,13.30
2019-05-21T11:27:11.286Z,13.30
2019-05-21T11:29:40.317Z,13.30
2019-05-21T11:32:11.396Z,13.40
2019-05-21T11:34:40.774Z,13.40
2019-05-21T11:37:10.126Z,13.40
2019-05-21T11:39:39.365Z,13.50
2019-05-21T11:42:08.554Z,13.60
2019-05-21T11:44:37.864Z,13.60
2019-05-21T11:47:06.788Z,13.60
2019-05-21T11:49:35.900Z,13.60
2019-05-21T11:52:05.129Z,13.70
2019-05-21T11:54:34.061Z,13.60
2019-05-21T11:57:03.249Z,13.60
2019-05-21T11:59:32.164Z,13.70
2019-05-21T12:02:01.025Z,13.80
2019-05-21T12:04:29.870Z,13.70
2019-05-21T12:07:02.572Z,13.70
2019-05-21T12:09:29.410Z,13.70
2019-05-21T12:11:58.278Z,13.60
2019-05-21T12:14:27.130Z,13.60
2019-05-21T12:16:56.183Z,13.70
2019-05-21T12:19:25.017Z,13.60
2019-05-21T12:21:54.097Z,13.70
2019-05-21T12:24:22.937Z,13.70
2019-05-21T12:26:51.882Z,13.80
2019-05-21T12:29:20.730Z,13.80
2019-05-21T12:31:49.983Z,13.70
2019-05-21T12:34:18.957Z,13.70
2019-05-21T12:36:47.834Z,13.70
2019-05-21T12:39:17.581Z,13.60
2019-05-21T12:41:46.623Z,13.60
2019-05-21T12:44:15.626Z,13.60
2019-05-21T12:46:45.253Z,13.70
2019-05-21T12:49:14.106Z,13.70
2019-05-21T12:51:42.983Z,13.70
2019-05-21T12:54:11.841Z,13.70
2019-05-21T12:56:41.417Z,13.70
2019-05-21T12:59:10.349Z,13.70
2019-05-21T13:01:39.297Z,13.70
2019-05-21T13:04:08.620Z,13.70
2019-05-21T13:06:37.489Z,13.70
2019-05-21T13:09:08.423Z,13.70
2019-05-21T13:11:37.611Z,13.60
2019-05-21T13:14:06.816Z,13.70
2019-05-21T13:16:36.161Z,13.80
2019-05-21T13:19:05.403Z,13.90
2019-05-21T13:21:34.461Z,13.90
2019-05-21T13:24:03.499Z,14.00
2019-05-21T13:26:32.771Z,14.00
2019-05-21T13:29:02.125Z,14.10
2019-05-21T13:31:31.092Z,14.10
2019-05-21T13:34:00.184Z,14.10
2019-05-21T13:36:29.052Z,14.10
2019-05-21T13:38:58.055Z,14.10
2019-05-21T13:41:27.382Z,14.00
2019-05-21T13:43:56.713Z,14.00
2019-05-21T13:46:25.556Z,14.00
2019-05-21T13:48:54.436Z,14.00
2019-05-21T13:51:23.485Z,13.90
2019-05-21T13:53:52.337Z,13.90
2019-05-21T13:56:21.678Z,13.90
2019-05-21T13:58:50.913Z,14.00
2019-05-21T14:01:20.022Z,13.90
2019-05-21T14:03:49.378Z,13.80
2019-05-21T14:06:20.363Z,13.80
2019-05-21T14:08:48.883Z,13.80
2019-05-21T14:11:17.974Z,13.80
2019-05-21T14:13:46.917Z,13.80
2019-05-21T14:16:16.087Z,13.70
2019-05-21T14:18:45.039Z,13.70
2019-05-21T14:21:14.005Z,13.70
2019-05-21T14:23:42.953Z,13.70
2019-05-21T14:26:12.021Z,13.70
2019-05-21T14:28:41.669Z,13.70
2019-05-21T14:31:10.621Z,13.60
2019-05-21T14:33:39.927Z,13.60
2019-05-21T14:36:08.836Z,13.60
2019-05-21T14:38:37.854Z,13.60
2019-05-21T14:41:06.856Z,13.50
2019-05-21T14:43:36.449Z,13.50
2019-05-21T14:46:05.459Z,13.50
2019-05-21T14:48:34.334Z,13.40
2019-05-21T14:51:03.735Z,13.40
2019-05-21T14:53:32.593Z,13.40
2019-05-21T14:56:01.468Z,13.40
2019-05-21T14:58:30.740Z,13.30
2019-05-21T15:01:00.028Z,13.40
2019-05-21T15:03:29.656Z,13.30
2019-05-21T15:05:59.719Z,13.40
2019-05-21T15:08:29.052Z,13.40
2019-05-21T15:10:58.609Z,13.40
2019-05-21T15:13:27.890Z,13.40
2019-05-21T15:15:57.475Z,13.40
2019-05-21T15:18:26.732Z,13.50
2019-05-21T15:21:10.094Z,13.50
2019-05-21T15:23:39.599Z,13.50
2019-05-21T15:26:09.926Z,13.50
2019-05-21T15:28:38.917Z,13.50
2019-05-21T15:31:08.009Z,13.50
2019-05-21T15:33:37.675Z,13.60
2019-05-21T15:36:06.553Z,13.50
2019-05-21T15:38:49.531Z,13.50
2019-05-21T15:41:11.983Z,13.40
2019-05-21T15:43:37.722Z,13.40
2019-05-21T15:46:06.713Z,13.50
2019-05-21T15:48:36.511Z,13.60
2019-05-21T15:51:05.466Z,13.60
2019-05-21T15:53:34.336Z,13.40
2019-05-21T15:56:03.320Z,13.50
2019-05-21T15:58:32.185Z,13.50
2019-05-21T16:01:01.262Z,13.50
2019-05-21T16:03:30.146Z,13.40
2019-05-21T16:05:59.549Z,13.40
2019-05-21T16:08:28.719Z,13.40
2019-05-21T16:10:58.080Z,13.50
2019-05-21T16:13:27.021Z,13.40
2019-05-21T16:15:56.541Z,13.40
2019-05-21T16:18:25.376Z,13.40
2019-05-21T16:20:54.372Z,13.40
2019-05-21T16:23:23.848Z,13.30
2019-05-21T16:25:52.957Z,13.40
2019-05-21T16:28:22.435Z,13.40
2019-05-21T16:30:51.509Z,13.50
2019-05-21T16:33:20.505Z,13.50
2019-05-21T16:35:49.574Z,13.50
2019-05-21T16:38:18.734Z,13.60
2019-05-21T16:40:48.127Z,13.60
2019-05-21T16:43:17.707Z,13.70
2019-05-21T16:45:47.085Z,13.80
2019-05-21T16:48:16.084Z,13.60
2019-05-21T16:50:44.950Z,13.60
2019-05-21T16:53:14.225Z,13.60
2019-05-21T16:55:43.242Z,13.50
2019-05-21T16:58:12.513Z,13.50
2019-05-21T17:00:41.810Z,13.60
2019-05-21T17:03:11.235Z,13.60
2019-05-21T17:05:40.393Z,13.60
2019-05-21T17:08:09.560Z,13.60
2019-05-21T17:10:38.623Z,13.60
2019-05-21T17:13:07.847Z,13.50
2019-05-21T17:15:37.294Z,13.50
2019-05-21T17:18:06.794Z,13.60
2019-05-21T17:20:36.220Z,13.60
2019-05-21T17:23:05.140Z,13.60
2019-05-21T17:25:34.691Z,13.50
2019-05-21T17:28:06.951Z,13.50
2019-05-21T17:30:36.375Z,13.50
2019-05-21T17:33:11.808Z,13.50
2019-05-21T17:35:41.305Z,13.50
2019-05-21T17:38:10.250Z,13.50
2019-05-21T17:40:39.113Z,13.50
2019-05-21T17:43:08.631Z,13.50
2019-05-21T17:45:37.881Z,13.50
2019-05-21T17:48:10.806Z,13.40
2019-05-21T17:50:39.812Z,13.30
2019-05-21T17:53:09.034Z,13.40
2019-05-21T17:55:38.323Z,13.30
2019-05-21T17:58:07.613Z,13.30
2019-05-21T18:00:46.296Z,13.40
2019-05-21T18:03:16.052Z,13.50
2019-05-21T18:05:46.038Z,13.50
2019-05-21T18:08:17.219Z,13.40
2019-05-21T18:10:46.541Z,13.30
2019-05-21T18:13:16.234Z,13.30
2019-05-21T18:15:45.329Z,13.30
2019-05-21T18:18:14.913Z,13.20
2019-05-21T18:20:43.928Z,13.20
2019-05-21T18:23:13.160Z,13.20
2019-05-21T18:25:42.164Z,13.20
2019-05-21T18:28:11.109Z,13.20
2019-05-21T18:30:40.725Z,13.10
2019-05-21T18:33:10.002Z,13.10
2019-05-21T18:35:39.204Z,13.10
2019-05-21T18:38:08.252Z,13.10
2019-05-21T18:40:37.266Z,13.10
2019-05-21T18:43:06.703Z,13.20
2019-05-21T18:45:35.721Z,13.20
2019-05-21T18:48:05.796Z,13.20
2019-05-21T18:50:36.967Z,13.00
2019-05-21T18:53:05.635Z,13.10
2019-05-21T18:55:34.620Z,13.00
2019-05-21T18:58:03.553Z,12.90
2019-05-21T19:00:34.937Z,12.90
2019-05-21T19:03:04.288Z,12.90
2019-05-21T19:05:33.430Z,12.90
2019-05-21T19:08:02.367Z,12.90
2019-05-21T19:10:31.868Z,12.90
2019-05-21T19:13:01.355Z,13.00
2019-05-21T19:15:30.935Z,13.00
2019-05-21T19:18:00.306Z,13.10
2019-05-21T19:20:29.390Z,13.10
2019-05-21T19:22:58.409Z,13.10
2019-05-21T19:25:27.498Z,12.90
2019-05-21T19:27:56.377Z,12.90
2019-05-21T19:30:25.656Z,12.80
2019-05-21T19:32:54.609Z,12.80
2019-05-21T19:35:23.590Z,12.90
2019-05-21T19:37:52.846Z,12.90
2019-05-21T19:40:22.369Z,12.90
2019-05-21T19:42:55.268Z,12.80
2019-05-21T19:45:22.406Z,12.80
2019-05-21T19:47:51.694Z,12.80
2019-05-21T19:50:20.741Z,12.70
2019-05-21T19:52:49.688Z,12.70
2019-05-21T19:55:18.969Z,12.80
2019-05-21T19:57:48.552Z,12.80
2019-05-21T20:00:20.738Z,12.80
2019-05-21T20:02:50.056Z,12.70
2019-05-21T20:05:19.525Z,12.70
2019-05-21T20:07:48.455Z,12.70
2019-05-21T20:10:17.816Z,12.90
2019-05-21T20:12:47.873Z,13.00
2019-05-21T20:15:17.167Z,12.90
2019-05-21T20:17:50.823Z,12.70
2019-05-21T20:20:21.119Z,12.70
2019-05-21T20:22:50.569Z,12.80
2019-05-21T20:25:20.333Z,12.80
2019-05-21T20:27:50.127Z,12.70
2019-05-21T20:30:24.494Z,12.70
2019-05-21T20:32:54.186Z,12.70
2019-05-21T20:35:25.980Z,12.70
2019-05-21T20:37:55.138Z,12.70
2019-05-21T20:40:25.453Z,12.70
2019-05-21T20:42:55.056Z,12.70
2019-05-21T20:45:24.849Z,12.70
2019-05-21T20:47:54.372Z,12.70
2019-05-21T20:50:23.319Z,12.60
2019-05-21T20:52:52.592Z,12.70
2019-05-21T20:55:21.773Z,12.70
2019-05-21T20:57:51.108Z,12.70
2019-05-21T21:00:24.981Z,12.70
2019-05-21T21:02:54.489Z,12.70
2019-05-21T21:05:23.623Z,12.60
2019-05-21T21:07:52.478Z,12.60
2019-05-21T21:10:22.062Z,12.60
2019-05-21T21:12:51.425Z,12.60
2019-05-21T21:15:20.528Z,12.60
2019-05-21T21:17:49.452Z,12.70
2019-05-21T21:20:19.185Z,12.70
2019-05-21T21:22:48.768Z,12.50
2019-05-21T21:25:21.028Z,12.60
2019-05-21T21:27:50.284Z,12.60
2019-05-21T21:30:19.489Z,12.70
2019-05-21T21:32:48.822Z,12.70
2019-05-21T21:35:18.037Z,12.70
2019-05-21T21:37:47.638Z,12.70
2019-05-21T21:40:18.503Z,12.60
2019-05-21T21:42:47.781Z,12.60
2019-05-21T21:45:17.365Z,12.70
2019-05-21T21:47:46.569Z,12.60
2019-05-21T21:50:15.899Z,12.50
2019-05-21T21:52:45.012Z,12.40
2019-05-21T21:55:15.025Z,12.50
2019-05-21T21:57:44.018Z,12.40
2019-05-21T22:01:18.225Z,12.40
2019-05-21T22:03:47.216Z,12.50
2019-05-21T22:06:18.270Z,12.60
2019-05-21T22:08:47.833Z,12.60
2019-05-21T22:11:18.205Z,12.60
2019-05-21T22:13:47.209Z,12.70
2019-05-21T22:16:16.577Z,12.60
2019-05-21T22:18:45.865Z,12.50
2019-05-21T22:21:15.082Z,12.50
2019-05-21T22:23:44.303Z,12.60
2019-05-21T22:26:13.575Z,12.70
2019-05-21T22:28:42.501Z,12.70
2019-05-21T22:31:11.577Z,12.60
2019-05-21T22:33:40.584Z,12.70
2019-05-21T22:36:09.988Z,12.60
2019-05-21T22:38:39.271Z,12.60
2019-05-21T22:41:08.593Z,12.60
2019-05-21T22:43:37.793Z,12.60
2019-05-21T22:46:07.450Z,12.50
2019-05-21T22:48:36.716Z,12.50
2019-05-21T22:51:05.816Z,12.60
2019-05-21T22:53:34.884Z,12.70
2019-05-21T22:56:03.817Z,12.60
2019-05-21T22:58:32.736Z,12.60
2019-05-21T23:01:02.643Z,12.60
2019-05-21T23:03:31.969Z,12.70
2019-05-21T23:06:00.985Z,12.60
2019-05-21T23:08:29.983Z,12.60
2019-05-21T23:10:58.987Z,12.50
2019-05-21T23:13:29.119Z,12.50
2019-05-21T23:15:58.736Z,12.40
2019-05-21T23:18:28.065Z,12.40
2019-05-21T23:20:59.146Z,12.40
2019-05-21T23:23:29.016Z,12.50
2019-05-21T23:25:59.126Z,12.50
2019-05-21T23:28:28.224Z,12.40
2019-05-21T23:30:57.509Z,12.50
2019-05-21T23:33:27.382Z,12.50
2019-05-21T23:35:56.879Z,12.40
2019-05-21T23:38:25.864Z,12.40
2019-05-21T23:40:55.465Z,12.40
2019-05-21T23:43:24.836Z,12.40
2019-05-21T23:45:53.842Z,12.40
2019-05-21T23:48:22.709Z,12.30
2019-05-21T23:50:51.573Z,12.30
2019-05-21T23:53:20.595Z,12.30
2019-05-21T23:55:49.428Z,12.20
2019-05-21T23:58:18.945Z,12.20
